createdAt,value
2023-05-06T00:00:43.102Z,476.00
2023-05-06T00:01:43.124Z,478.00
2023-05-06T00:02:43.180Z,478.00
2023-05-06T00:03:43.306Z,477.00
2023-05-06T00:04:43.180Z,477.00
2023-05-06T00:05:43.110Z,480.00
2023-05-06T00:06:43.132Z,479.00
2023-05-06T00:07:43.137Z,480.00
2023-05-06T00:08:43.208Z,481.00
2023-05-06T00:09:43.161Z,480.00
2023-05-06T00:10:43.174Z,479.00
2023-05-06T00:11:43.178Z,477.00
2023-05-06T00:12:43.234Z,479.00
2023-05-06T00:13:43.213Z,477.00
2023-05-06T00:14:43.199Z,475.00
2023-05-06T00:15:43.218Z,475.00
2023-05-06T00:16:43.268Z,473.00
2023-05-06T00:17:43.327Z,472.00
2023-05-06T00:18:43.246Z,476.00
2023-05-06T00:19:43.259Z,475.00
2023-05-06T00:20:43.259Z,475.00
2023-05-06T00:21:43.262Z,476.00
2023-05-06T00:22:43.289Z,477.00
2023-05-06T00:23:43.289Z,476.00
2023-05-06T00:24:43.294Z,475.00
2023-05-06T00:25:43.300Z,479.00
2023-05-06T00:26:43.322Z,483.00
2023-05-06T00:27:43.340Z,484.00
2023-05-06T00:28:43.337Z,482.00
2023-05-06T00:29:43.347Z,481.00
2023-05-06T00:30:43.362Z,482.00
2023-05-06T00:31:43.424Z,477.00
2023-05-06T00:32:43.410Z,478.00
2023-05-06T00:33:43.444Z,477.00
2023-05-06T00:34:43.397Z,477.00
2023-05-06T00:35:43.406Z,475.00
2023-05-06T00:36:43.405Z,476.00
2023-05-06T00:37:43.426Z,477.00
2023-05-06T00:38:43.409Z,479.00
2023-05-06T00:39:43.422Z,479.00
2023-05-06T00:40:43.423Z,478.00
2023-05-06T00:41:43.430Z,476.00
2023-05-06T00:42:43.446Z,476.00
2023-05-06T00:43:43.430Z,475.00
2023-05-06T00:44:43.431Z,476.00
2023-05-06T00:45:43.510Z,476.00
2023-05-06T00:46:43.469Z,475.00
2023-05-06T00:47:43.537Z,474.00
2023-05-06T00:48:43.479Z,476.00
2023-05-06T00:49:43.497Z,476.00
2023-05-06T00:50:43.515Z,474.00
2023-05-06T00:51:43.512Z,473.00
2023-05-06T00:52:43.541Z,472.00
2023-05-06T00:53:43.577Z,473.00
2023-05-06T00:54:43.542Z,473.00
2023-05-06T00:55:43.566Z,475.00
2023-05-06T00:56:43.578Z,477.00
2023-05-06T00:57:43.576Z,476.00
2023-05-06T00:58:43.612Z,478.00
2023-05-06T00:59:43.578Z,475.00
2023-05-06T01:00:43.616Z,471.00
2023-05-06T01:01:43.614Z,472.00
2023-05-06T01:02:47.394Z,474.00
2023-05-06T01:03:43.750Z,474.00
2023-05-06T01:04:43.617Z,474.00
2023-05-06T01:05:43.711Z,475.00
2023-05-06T01:06:43.613Z,476.00
2023-05-06T01:07:43.646Z,475.00
2023-05-06T01:08:43.644Z,474.00
2023-05-06T01:09:43.665Z,473.00
2023-05-06T01:10:43.686Z,472.00
2023-05-06T01:11:43.674Z,472.00
2023-05-06T01:12:43.706Z,473.00
2023-05-06T01:13:43.684Z,475.00
2023-05-06T01:14:43.699Z,472.00
2023-05-06T01:15:43.725Z,469.00
2023-05-06T01:16:43.740Z,470.00
2023-05-06T01:17:43.771Z,473.00
2023-05-06T01:18:43.746Z,470.00
2023-05-06T01:19:43.760Z,470.00
2023-05-06T01:20:43.762Z,469.00
2023-05-06T01:21:43.829Z,469.00
2023-05-06T01:22:43.799Z,467.00
2023-05-06T01:23:43.805Z,467.00
2023-05-06T01:24:43.800Z,466.00
2023-05-06T01:25:43.809Z,468.00
2023-05-06T01:26:43.891Z,467.00
2023-05-06T01:27:43.836Z,471.00
2023-05-06T01:28:43.821Z,471.00
2023-05-06T01:29:43.887Z,472.00
2023-05-06T01:30:43.874Z,470.00
2023-05-06T01:31:43.850Z,470.00
2023-05-06T01:32:43.959Z,470.00
2023-05-06T01:33:43.874Z,471.00
2023-05-06T01:34:43.870Z,470.00
2023-05-06T01:35:43.923Z,471.00
2023-05-06T01:36:43.892Z,469.00
2023-05-06T01:37:43.973Z,468.00
2023-05-06T01:38:43.967Z,467.00
2023-05-06T01:39:43.912Z,466.00
2023-05-06T01:40:43.909Z,466.00
2023-05-06T01:41:43.937Z,469.00
2023-05-06T01:42:43.924Z,467.00
2023-05-06T01:43:43.915Z,468.00
2023-05-06T01:44:43.968Z,468.00
2023-05-06T01:45:43.954Z,470.00
2023-05-06T01:46:44.022Z,472.00
2023-05-06T01:47:44.004Z,472.00
2023-05-06T01:48:44.025Z,472.00
2023-05-06T01:49:43.990Z,473.00
2023-05-06T01:50:44.004Z,471.00
2023-05-06T01:51:44.041Z,473.00
2023-05-06T01:52:44.031Z,473.00
2023-05-06T01:53:44.124Z,474.00
2023-05-06T01:54:44.050Z,473.00
2023-05-06T01:55:44.079Z,471.00
2023-05-06T01:56:44.078Z,469.00
2023-05-06T01:57:44.102Z,467.00
2023-05-06T01:58:44.107Z,467.00
2023-05-06T01:59:44.119Z,467.00
2023-05-06T02:00:44.130Z,469.00
2023-05-06T02:01:44.169Z,471.00
2023-05-06T02:02:44.225Z,470.00
2023-05-06T02:03:44.258Z,469.00
2023-05-06T02:04:44.180Z,468.00
2023-05-06T02:05:44.191Z,466.00
2023-05-06T02:06:44.211Z,466.00
2023-05-06T02:07:44.222Z,466.00
2023-05-06T02:08:44.228Z,464.00
2023-05-06T02:09:44.293Z,465.00
2023-05-06T02:10:44.244Z,465.00
2023-05-06T02:11:44.259Z,465.00
2023-05-06T02:12:44.276Z,467.00
2023-05-06T02:13:44.269Z,471.00
2023-05-06T02:14:44.278Z,471.00
2023-05-06T02:15:44.328Z,471.00
2023-05-06T02:16:44.299Z,470.00
2023-05-06T02:17:44.341Z,468.00
2023-05-06T02:18:44.314Z,469.00
2023-05-06T02:19:44.326Z,464.00
2023-05-06T02:20:44.334Z,467.00
2023-05-06T02:21:44.355Z,467.00
2023-05-06T02:22:44.355Z,466.00
2023-05-06T02:23:44.364Z,468.00
2023-05-06T02:24:44.364Z,467.00
2023-05-06T02:25:44.403Z,469.00
2023-05-06T02:26:44.394Z,467.00
2023-05-06T02:27:44.385Z,467.00
2023-05-06T02:28:44.452Z,468.00
2023-05-06T02:29:44.468Z,468.00
2023-05-06T02:30:44.492Z,466.00
2023-05-06T02:31:44.612Z,464.00
2023-05-06T02:32:44.596Z,463.00
2023-05-06T02:33:44.618Z,461.00
2023-05-06T02:34:44.666Z,462.00
2023-05-06T02:35:44.695Z,463.00
2023-05-06T02:36:44.750Z,465.00
2023-05-06T02:37:44.774Z,464.00
2023-05-06T02:38:44.851Z,464.00
2023-05-06T02:39:44.891Z,464.00
2023-05-06T02:40:44.925Z,465.00
2023-05-06T02:41:45.038Z,466.00
2023-05-06T02:42:45.079Z,464.00
2023-05-06T02:43:45.062Z,462.00
2023-05-06T02:44:45.127Z,462.00
2023-05-06T02:45:45.154Z,460.00
2023-05-06T02:46:45.193Z,460.00
2023-05-06T02:47:45.300Z,460.00
2023-05-06T02:48:45.304Z,461.00
2023-05-06T02:49:45.326Z,462.00
2023-05-06T02:50:45.368Z,462.00
2023-05-06T02:51:45.401Z,461.00
2023-05-06T02:52:45.531Z,460.00
2023-05-06T02:53:45.518Z,462.00
2023-05-06T02:54:45.554Z,462.00
2023-05-06T02:55:45.671Z,460.00
2023-05-06T02:56:45.664Z,461.00
2023-05-06T02:57:45.775Z,461.00
2023-05-06T02:58:45.761Z,465.00
2023-05-06T02:59:45.772Z,465.00
2023-05-06T03:00:45.803Z,463.00
2023-05-06T03:01:45.807Z,463.00
2023-05-06T03:02:45.853Z,464.00
2023-05-06T03:03:45.850Z,464.00
2023-05-06T03:04:45.847Z,463.00
2023-05-06T03:05:45.851Z,463.00
2023-05-06T03:06:45.870Z,463.00
2023-05-06T03:07:45.882Z,466.00
2023-05-06T03:08:45.923Z,465.00
2023-05-06T03:09:45.915Z,462.00
2023-05-06T03:10:45.937Z,460.00
2023-05-06T03:11:45.957Z,460.00
2023-05-06T03:12:45.975Z,462.00
2023-05-06T03:13:46.110Z,462.00
2023-05-06T03:14:45.994Z,459.00
2023-05-06T03:15:46.003Z,459.00
2023-05-06T03:16:46.055Z,460.00
2023-05-06T03:17:46.071Z,460.00
2023-05-06T03:18:46.061Z,460.00
2023-05-06T03:19:46.103Z,457.00
2023-05-06T03:20:46.119Z,456.00
2023-05-06T03:21:46.190Z,458.00
2023-05-06T03:22:46.165Z,458.00
2023-05-06T03:23:46.213Z,459.00
2023-05-06T03:24:46.264Z,458.00
2023-05-06T03:25:46.315Z,458.00
2023-05-06T03:26:46.368Z,458.00
2023-05-06T03:27:46.414Z,458.00
2023-05-06T03:28:46.479Z,462.00
2023-05-06T03:29:46.586Z,461.00
2023-05-06T03:30:46.584Z,463.00
2023-05-06T03:31:46.709Z,464.00
2023-05-06T03:32:46.697Z,463.00
2023-05-06T03:33:46.775Z,465.00
2023-05-06T03:34:46.797Z,464.00
2023-05-06T03:35:46.843Z,463.00
2023-05-06T03:36:46.900Z,463.00
2023-05-06T03:37:46.948Z,461.00
2023-05-06T03:38:47.027Z,461.00
2023-05-06T03:39:47.097Z,464.00
2023-05-06T03:40:47.125Z,467.00
2023-05-06T03:41:47.166Z,469.00
2023-05-06T03:42:47.225Z,468.00
2023-05-06T03:43:47.286Z,470.00
2023-05-06T03:44:47.330Z,469.00
2023-05-06T03:45:47.622Z,467.00
2023-05-06T03:46:47.473Z,465.00
2023-05-06T03:47:48.303Z,464.00
2023-05-06T03:48:47.542Z,464.00
2023-05-06T03:49:47.592Z,467.00
2023-05-06T03:50:47.654Z,467.00
2023-05-06T03:51:47.700Z,466.00
2023-05-06T03:52:47.767Z,466.00
2023-05-06T03:53:47.837Z,464.00
2023-05-06T03:54:47.901Z,462.00
2023-05-06T03:55:47.935Z,464.00
2023-05-06T03:56:47.986Z,465.00
2023-05-06T03:57:48.052Z,464.00
2023-05-06T03:58:48.102Z,461.00
2023-05-06T03:59:48.154Z,459.00
2023-05-06T04:00:48.222Z,457.00
2023-05-06T04:01:48.506Z,457.00
2023-05-06T04:02:48.368Z,456.00
2023-05-06T04:03:48.421Z,457.00
2023-05-06T04:04:48.473Z,457.00
2023-05-06T04:05:48.512Z,458.00
2023-05-06T04:06:48.577Z,458.00
2023-05-06T04:07:48.624Z,459.00
2023-05-06T04:08:48.751Z,459.00
2023-05-06T04:09:48.744Z,460.00
2023-05-06T04:10:48.820Z,460.00
2023-05-06T04:11:48.861Z,462.00
2023-05-06T04:12:48.941Z,461.00
2023-05-06T04:13:48.915Z,459.00
2023-05-06T04:14:48.923Z,460.00
2023-05-06T04:15:48.957Z,460.00
2023-05-06T04:16:48.991Z,457.00
2023-05-06T04:17:49.105Z,456.00
2023-05-06T04:18:49.043Z,454.00
2023-05-06T04:19:49.012Z,458.00
2023-05-06T04:20:49.052Z,461.00
2023-05-06T04:21:49.047Z,462.00
2023-05-06T04:22:49.080Z,462.00
2023-05-06T04:23:49.088Z,463.00
2023-05-06T04:24:49.124Z,465.00
2023-05-06T04:25:49.139Z,465.00
2023-05-06T04:26:49.155Z,461.00
2023-05-06T04:27:49.187Z,462.00
2023-05-06T04:28:49.202Z,461.00
2023-05-06T04:29:49.232Z,459.00
2023-05-06T04:30:49.236Z,460.00
2023-05-06T04:31:49.310Z,460.00
2023-05-06T04:32:49.301Z,462.00
2023-05-06T04:33:49.396Z,462.00
2023-05-06T04:34:49.312Z,460.00
2023-05-06T04:35:49.311Z,459.00
2023-05-06T04:36:49.344Z,458.00
2023-05-06T04:37:49.372Z,457.00
2023-05-06T04:38:49.366Z,458.00
2023-05-06T04:39:49.385Z,455.00
2023-05-06T04:40:49.389Z,455.00
2023-05-06T04:41:49.402Z,458.00
2023-05-06T04:42:49.434Z,458.00
2023-05-06T04:43:49.431Z,458.00
2023-05-06T04:44:49.450Z,455.00
2023-05-06T04:45:49.675Z,454.00
2023-05-06T04:46:49.487Z,455.00
2023-05-06T04:47:49.589Z,455.00
2023-05-06T04:48:49.506Z,456.00
2023-05-06T04:49:49.571Z,455.00
2023-05-06T04:50:49.522Z,454.00
2023-05-06T04:51:49.644Z,453.00
2023-05-06T04:52:49.588Z,454.00
2023-05-06T04:53:49.617Z,456.00
2023-05-06T04:54:49.651Z,457.00
2023-05-06T04:55:49.629Z,457.00
2023-05-06T04:56:49.653Z,454.00
2023-05-06T04:57:49.664Z,455.00
2023-05-06T04:58:49.688Z,454.00
2023-05-06T04:59:49.696Z,455.00
2023-05-06T05:00:49.703Z,458.00
2023-05-06T05:01:49.748Z,460.00
2023-05-06T05:02:49.830Z,461.00
2023-05-06T05:03:49.816Z,460.00
2023-05-06T05:04:49.803Z,460.00
2023-05-06T05:05:49.922Z,460.00
2023-05-06T05:06:49.937Z,462.00
2023-05-06T05:07:50.053Z,460.00
2023-05-06T05:08:49.985Z,460.00
2023-05-06T05:09:49.962Z,460.00
2023-05-06T05:10:49.990Z,461.00
2023-05-06T05:11:49.992Z,463.00
2023-05-06T05:12:50.084Z,460.00
2023-05-06T05:13:50.050Z,462.00
2023-05-06T05:14:50.059Z,463.00
2023-05-06T05:15:50.072Z,461.00
2023-05-06T05:16:50.133Z,457.00
2023-05-06T05:17:50.154Z,455.00
2023-05-06T05:18:50.133Z,456.00
2023-05-06T05:19:50.142Z,456.00
2023-05-06T05:20:50.177Z,456.00
2023-05-06T05:21:50.261Z,458.00
2023-05-06T05:22:50.186Z,460.00
2023-05-06T05:23:50.228Z,459.00
2023-05-06T05:24:50.234Z,460.00
2023-05-06T05:25:50.234Z,459.00
2023-05-06T05:26:50.263Z,459.00
2023-05-06T05:27:50.252Z,460.00
2023-05-06T05:28:50.262Z,461.00
2023-05-06T05:29:50.286Z,464.00
2023-05-06T05:30:50.424Z,459.00
2023-05-06T05:31:50.334Z,459.00
2023-05-06T05:32:50.427Z,460.00
2023-05-06T05:33:50.446Z,460.00
2023-05-06T05:34:50.372Z,461.00
2023-05-06T05:35:50.408Z,462.00
2023-05-06T05:36:50.408Z,458.00
2023-05-06T05:37:50.488Z,459.00
2023-05-06T05:38:50.439Z,458.00
2023-05-06T05:39:50.457Z,458.00
2023-05-06T05:40:50.485Z,455.00
2023-05-06T05:41:50.532Z,456.00
2023-05-06T05:42:50.480Z,457.00
2023-05-06T05:43:50.514Z,458.00
2023-05-06T05:44:50.518Z,457.00
2023-05-06T05:45:50.535Z,458.00
2023-05-06T05:46:50.635Z,459.00
2023-05-06T05:47:50.761Z,459.00
2023-05-06T05:48:50.766Z,461.00
2023-05-06T05:49:50.837Z,461.00
2023-05-06T05:50:50.910Z,458.00
2023-05-06T05:51:50.960Z,456.00
2023-05-06T05:52:51.022Z,453.00
2023-05-06T05:53:51.358Z,455.00
2023-05-06T05:54:51.056Z,454.00
2023-05-06T05:55:51.075Z,454.00
2023-05-06T05:56:51.101Z,452.00
2023-05-06T05:57:51.087Z,453.00
2023-05-06T05:58:51.122Z,454.00
2023-05-06T05:59:51.125Z,455.00
2023-05-06T06:00:51.118Z,455.00
2023-05-06T06:01:51.130Z,454.00
2023-05-06T06:02:51.196Z,454.00
2023-05-06T06:03:51.282Z,455.00
2023-05-06T06:04:51.296Z,455.00
2023-05-06T06:05:51.253Z,454.00
2023-05-06T06:06:51.332Z,452.00
2023-05-06T06:07:51.395Z,452.00
2023-05-06T06:08:51.491Z,450.00
2023-05-06T06:09:51.596Z,450.00
2023-05-06T06:10:51.582Z,448.00
2023-05-06T06:11:51.671Z,451.00
2023-05-06T06:12:51.756Z,454.00
2023-05-06T06:13:51.805Z,454.00
2023-05-06T06:14:51.869Z,451.00
2023-05-06T06:15:51.954Z,449.00
2023-05-06T06:16:51.995Z,450.00
2023-05-06T06:17:52.127Z,450.00
2023-05-06T06:18:52.150Z,449.00
2023-05-06T06:19:52.201Z,448.00
2023-05-06T06:20:53.392Z,447.00
2023-05-06T06:21:52.322Z,450.00
2023-05-06T06:22:52.387Z,451.00
2023-05-06T06:23:52.451Z,453.00
2023-05-06T06:24:52.502Z,454.00
2023-05-06T06:25:52.655Z,453.00
2023-05-06T06:26:52.624Z,452.00
2023-05-06T06:27:52.694Z,450.00
2023-05-06T06:28:52.746Z,446.00
2023-05-06T06:29:52.821Z,449.00
2023-05-06T06:30:52.893Z,447.00
2023-05-06T06:31:52.979Z,446.00
2023-05-06T06:32:53.072Z,444.00
2023-05-06T06:33:53.061Z,444.00
2023-05-06T06:34:53.128Z,445.00
2023-05-06T06:35:53.202Z,446.00
2023-05-06T06:36:53.254Z,444.00
2023-05-06T06:37:53.326Z,446.00
2023-05-06T06:38:53.336Z,447.00
2023-05-06T06:39:53.375Z,446.00
2023-05-06T06:40:53.378Z,445.00
2023-05-06T06:41:53.525Z,445.00
2023-05-06T06:42:53.417Z,445.00
2023-05-06T06:43:53.444Z,449.00
2023-05-06T06:44:53.434Z,450.00
2023-05-06T06:45:53.507Z,449.00
2023-05-06T06:46:53.517Z,451.00
2023-05-06T06:47:53.539Z,450.00
2023-05-06T06:48:53.511Z,451.00
2023-05-06T06:49:53.509Z,450.00
2023-05-06T06:50:53.522Z,450.00
2023-05-06T06:51:53.576Z,449.00
2023-05-06T06:52:53.626Z,447.00
2023-05-06T06:53:53.699Z,445.00
2023-05-06T06:54:53.754Z,446.00
2023-05-06T06:55:53.806Z,447.00
2023-05-06T06:56:53.876Z,446.00
2023-05-06T06:57:54.009Z,447.00
2023-05-06T06:58:54.012Z,445.00
2023-05-06T06:59:54.073Z,446.00
2023-05-06T07:00:54.190Z,447.00
2023-05-06T07:01:54.210Z,445.00
2023-05-06T07:02:54.413Z,444.00
2023-05-06T07:03:54.355Z,443.00
2023-05-06T07:04:54.394Z,441.00
2023-05-06T07:05:54.458Z,441.00
2023-05-06T07:06:54.523Z,441.00
2023-05-06T07:07:54.606Z,445.00
2023-05-06T07:08:54.676Z,441.00
2023-05-06T07:09:54.749Z,442.00
2023-05-06T07:10:54.786Z,442.00
2023-05-06T07:11:54.864Z,441.00
2023-05-06T07:12:54.974Z,438.00
2023-05-06T07:13:55.056Z,439.00
2023-05-06T07:14:55.058Z,440.00
2023-05-06T07:15:55.104Z,440.00
2023-05-06T07:16:55.200Z,440.00
2023-05-06T07:17:55.261Z,440.00
2023-05-06T07:18:55.321Z,439.00
2023-05-06T07:19:55.274Z,440.00
2023-05-06T07:20:55.283Z,440.00
2023-05-06T07:21:55.306Z,443.00
2023-05-06T07:22:55.337Z,443.00
2023-05-06T07:23:55.345Z,443.00
2023-05-06T07:24:55.369Z,444.00
2023-05-06T07:25:55.386Z,444.00
2023-05-06T07:26:55.429Z,440.00
2023-05-06T07:27:55.482Z,439.00
2023-05-06T07:28:55.447Z,437.00
2023-05-06T07:29:55.559Z,438.00
2023-05-06T07:30:55.507Z,440.00
2023-05-06T07:31:55.477Z,443.00
2023-05-06T07:32:55.525Z,442.00
2023-05-06T07:33:55.508Z,437.00
2023-05-06T07:34:55.538Z,437.00
2023-05-06T07:35:55.534Z,437.00
2023-05-06T07:36:55.579Z,438.00
2023-05-06T07:37:55.566Z,438.00
2023-05-06T07:38:55.620Z,436.00
2023-05-06T07:39:55.620Z,436.00
2023-05-06T07:40:55.650Z,438.00
2023-05-06T07:41:55.643Z,436.00
2023-05-06T07:42:55.648Z,435.00
2023-05-06T07:43:55.658Z,434.00
2023-05-06T07:44:55.654Z,436.00
2023-05-06T07:45:55.970Z,436.00
2023-05-06T07:46:55.752Z,436.00
2023-05-06T07:47:55.733Z,437.00
2023-05-06T07:48:55.720Z,438.00
2023-05-06T07:49:55.719Z,438.00
2023-05-06T07:50:55.725Z,438.00
2023-05-06T07:51:55.748Z,438.00
2023-05-06T07:52:55.760Z,437.00
2023-05-06T07:53:55.792Z,434.00
2023-05-06T07:54:55.777Z,436.00
2023-05-06T07:55:55.781Z,438.00
2023-05-06T07:56:55.801Z,438.00
2023-05-06T07:57:55.805Z,437.00
2023-05-06T07:58:55.846Z,436.00
2023-05-06T07:59:55.902Z,435.00
2023-05-06T08:00:55.910Z,434.00
2023-05-06T08:01:56.025Z,436.00
2023-05-06T08:02:56.150Z,435.00
2023-05-06T08:03:56.062Z,435.00
2023-05-06T08:04:56.021Z,435.00
2023-05-06T08:05:56.023Z,433.00
2023-05-06T08:06:56.025Z,432.00
2023-05-06T08:07:56.030Z,433.00
2023-05-06T08:08:56.065Z,435.00
2023-05-06T08:09:56.076Z,437.00
2023-05-06T08:10:56.095Z,437.00
2023-05-06T08:11:56.125Z,435.00
2023-05-06T08:12:56.138Z,433.00
2023-05-06T08:13:56.150Z,434.00
2023-05-06T08:14:56.138Z,433.00
2023-05-06T08:15:56.190Z,432.00
2023-05-06T08:16:56.169Z,432.00
2023-05-06T08:17:57.590Z,434.00
2023-05-06T08:18:56.181Z,434.00
2023-05-06T08:19:56.193Z,434.00
2023-05-06T08:20:56.225Z,435.00
2023-05-06T08:21:56.229Z,437.00
2023-05-06T08:22:56.223Z,435.00
2023-05-06T08:23:56.263Z,435.00
2023-05-06T08:24:56.261Z,438.00
2023-05-06T08:25:56.334Z,438.00
2023-05-06T08:26:56.302Z,435.00
2023-05-06T08:27:56.300Z,432.00
2023-05-06T08:28:56.357Z,434.00
2023-05-06T08:29:56.338Z,433.00
2023-05-06T08:30:56.346Z,431.00
2023-05-06T08:31:56.466Z,432.00
2023-05-06T08:32:56.413Z,431.00
2023-05-06T08:33:56.439Z,431.00
2023-05-06T08:34:56.395Z,433.00
2023-05-06T08:35:56.414Z,432.00
2023-05-06T08:36:56.447Z,433.00
2023-05-06T08:37:56.440Z,430.00
2023-05-06T08:38:56.478Z,429.00
2023-05-06T08:39:58.104Z,428.00
2023-05-06T08:40:56.465Z,430.00
2023-05-06T08:41:56.534Z,430.00
2023-05-06T08:42:56.501Z,430.00
2023-05-06T08:43:56.538Z,431.00
2023-05-06T08:44:56.530Z,431.00
2023-05-06T08:45:56.590Z,431.00
2023-05-06T08:46:56.550Z,430.00
2023-05-06T08:47:56.633Z,429.00
2023-05-06T08:48:56.607Z,430.00
2023-05-06T08:49:56.649Z,427.00
2023-05-06T08:50:56.622Z,429.00
2023-05-06T08:51:56.631Z,429.00
2023-05-06T08:52:56.640Z,430.00
2023-05-06T08:53:56.706Z,428.00
2023-05-06T08:54:56.682Z,427.00
2023-05-06T08:55:56.723Z,427.00
2023-05-06T08:56:56.728Z,426.00
2023-05-06T08:57:56.746Z,425.00
2023-05-06T08:58:56.758Z,426.00
2023-05-06T08:59:56.765Z,426.00
2023-05-06T09:00:56.849Z,424.00
2023-05-06T09:01:56.890Z,421.00
2023-05-06T09:02:56.966Z,420.00
2023-05-06T09:03:56.885Z,418.00
2023-05-06T09:04:56.925Z,419.00
2023-05-06T09:05:57.000Z,418.00
2023-05-06T09:06:56.890Z,418.00
2023-05-06T09:07:56.937Z,417.00
2023-05-06T09:08:56.936Z,418.00
2023-05-06T09:09:56.959Z,416.00
2023-05-06T09:10:56.955Z,417.00
2023-05-06T09:11:56.951Z,419.00
2023-05-06T09:12:57.019Z,417.00
2023-05-06T09:13:57.020Z,416.00
2023-05-06T09:14:56.993Z,418.00
2023-05-06T09:15:57.018Z,416.00
2023-05-06T09:16:57.165Z,412.00
2023-05-06T09:17:57.079Z,414.00
2023-05-06T09:18:57.061Z,412.00
2023-05-06T09:19:57.137Z,411.00
2023-05-06T09:20:59.373Z,409.00
2023-05-06T09:21:57.161Z,407.00
2023-05-06T09:22:57.104Z,408.00
2023-05-06T09:23:57.111Z,405.00
2023-05-06T09:24:57.223Z,404.00
2023-05-06T09:25:57.146Z,403.00
2023-05-06T09:26:57.169Z,406.00
2023-05-06T09:27:57.185Z,409.00
2023-05-06T09:28:57.205Z,413.00
2023-05-06T09:29:57.220Z,412.00
2023-05-06T09:30:57.294Z,411.00
2023-05-06T09:31:57.255Z,410.00
2023-05-06T09:32:57.343Z,411.00
2023-05-06T09:33:57.294Z,409.00
2023-05-06T09:34:57.377Z,409.00
2023-05-06T09:35:57.358Z,410.00
2023-05-06T09:36:57.350Z,408.00
2023-05-06T09:37:57.393Z,407.00
2023-05-06T09:38:57.392Z,406.00
2023-05-06T09:39:57.406Z,407.00
2023-05-06T09:40:57.433Z,410.00
2023-05-06T09:41:57.430Z,410.00
2023-05-06T09:42:57.438Z,409.00
2023-05-06T09:43:57.461Z,408.00
2023-05-06T09:44:59.758Z,409.00
2023-05-06T09:45:57.509Z,409.00
2023-05-06T09:46:57.482Z,411.00
2023-05-06T09:47:57.534Z,411.00
2023-05-06T09:48:57.528Z,410.00
2023-05-06T09:49:57.515Z,411.00
2023-05-06T09:50:59.995Z,409.00
2023-05-06T09:51:57.558Z,407.00
2023-05-06T09:52:57.555Z,407.00
2023-05-06T09:53:57.656Z,408.00
2023-05-06T09:54:57.592Z,406.00
2023-05-06T09:55:57.606Z,405.00
2023-05-06T09:56:59.278Z,405.00
2023-05-06T09:57:57.607Z,406.00
2023-05-06T09:58:57.623Z,407.00
2023-05-06T09:59:57.629Z,405.00
2023-05-06T10:00:57.641Z,404.00
2023-05-06T10:01:57.670Z,405.00
2023-05-06T10:02:58.006Z,406.00
2023-05-06T10:03:57.806Z,405.00
2023-05-06T10:04:58.060Z,405.00
2023-05-06T10:05:57.723Z,407.00
2023-05-06T10:06:57.757Z,407.00
2023-05-06T10:07:57.756Z,408.00
2023-05-06T10:08:57.774Z,409.00
2023-05-06T10:09:57.783Z,408.00
2023-05-06T10:10:57.805Z,408.00
2023-05-06T10:11:57.798Z,411.00
2023-05-06T10:12:57.861Z,410.00
2023-05-06T10:13:57.827Z,408.00
2023-05-06T10:14:57.832Z,409.00
2023-05-06T10:15:57.891Z,407.00
2023-05-06T10:16:57.855Z,406.00
2023-05-06T10:17:57.919Z,407.00
2023-05-06T10:18:57.901Z,408.00
2023-05-06T10:19:57.902Z,409.00
2023-05-06T10:20:57.908Z,410.00
2023-05-06T10:21:57.954Z,409.00
2023-05-06T10:22:57.924Z,411.00
2023-05-06T10:23:57.931Z,412.00
2023-05-06T10:24:57.970Z,411.00
2023-05-06T10:25:57.960Z,412.00
2023-05-06T10:26:57.960Z,412.00
2023-05-06T10:27:57.962Z,412.00
2023-05-06T10:28:57.967Z,412.00
2023-05-06T10:29:57.985Z,412.00
2023-05-06T10:30:58.038Z,409.00
2023-05-06T10:31:58.125Z,410.00
2023-05-06T10:32:58.024Z,413.00
2023-05-06T10:33:58.047Z,410.00
2023-05-06T10:34:58.010Z,410.00
2023-05-06T10:35:58.041Z,411.00
2023-05-06T10:36:58.062Z,409.00
2023-05-06T10:37:58.041Z,410.00
2023-05-06T10:38:58.053Z,411.00
2023-05-06T10:39:58.071Z,411.00
2023-05-06T10:40:58.084Z,406.00
2023-05-06T10:41:58.088Z,405.00
2023-05-06T10:42:58.114Z,405.00
2023-05-06T10:43:58.122Z,405.00
2023-05-06T10:44:58.136Z,407.00
2023-05-06T10:45:58.174Z,409.00
2023-05-06T10:46:58.157Z,410.00
2023-05-06T10:47:58.217Z,411.00
2023-05-06T10:48:58.250Z,413.00
2023-05-06T10:49:58.195Z,413.00
2023-05-06T10:50:58.199Z,414.00
2023-05-06T10:51:58.229Z,413.00
2023-05-06T10:52:58.216Z,414.00
2023-05-06T10:53:58.256Z,416.00
2023-05-06T10:54:58.226Z,418.00
2023-05-06T10:55:58.239Z,416.00
2023-05-06T10:56:58.240Z,418.00
2023-05-06T10:57:58.347Z,417.00
2023-05-06T10:58:58.322Z,416.00
2023-05-06T10:59:58.282Z,416.00
2023-05-06T11:00:58.368Z,415.00
2023-05-06T11:01:58.341Z,412.00
2023-05-06T11:02:58.391Z,409.00
2023-05-06T11:03:58.334Z,410.00
2023-05-06T11:04:58.340Z,410.00
2023-05-06T11:05:58.377Z,412.00
2023-05-06T11:06:58.397Z,412.00
2023-05-06T11:07:58.379Z,408.00
2023-05-06T11:08:58.395Z,406.00
2023-05-06T11:09:58.405Z,408.00
2023-05-06T11:10:58.398Z,407.00
2023-05-06T11:11:58.408Z,407.00
2023-05-06T11:12:58.494Z,408.00
2023-05-06T11:13:58.540Z,408.00
2023-05-06T11:14:58.495Z,410.00
2023-05-06T11:15:58.465Z,409.00
2023-05-06T11:16:58.496Z,409.00
2023-05-06T11:17:58.489Z,408.00
2023-05-06T11:18:58.501Z,412.00
2023-05-06T11:19:58.506Z,412.00
2023-05-06T11:20:58.550Z,411.00
2023-05-06T11:21:58.624Z,412.00
2023-05-06T11:22:58.671Z,409.00
2023-05-06T11:23:58.708Z,409.00
2023-05-06T11:24:58.729Z,410.00
2023-05-06T11:25:58.781Z,411.00
2023-05-06T11:26:58.808Z,412.00
2023-05-06T11:27:58.856Z,414.00
2023-05-06T11:28:58.912Z,415.00
2023-05-06T11:29:59.043Z,415.00
2023-05-06T11:30:59.099Z,416.00
2023-05-06T11:31:59.132Z,415.00
2023-05-06T11:32:59.215Z,416.00
2023-05-06T11:33:59.276Z,417.00
2023-05-06T11:34:59.365Z,416.00
2023-05-06T11:35:59.439Z,415.00
2023-05-06T11:36:59.507Z,413.00
2023-05-06T11:37:59.617Z,411.00
2023-05-06T11:38:59.589Z,412.00
2023-05-06T11:39:59.662Z,411.00
2023-05-06T11:40:59.745Z,410.00
2023-05-06T11:41:59.833Z,408.00
2023-05-06T11:42:59.899Z,407.00
2023-05-06T11:43:59.958Z,408.00
2023-05-06T11:45:00.061Z,407.00
2023-05-06T11:46:00.261Z,405.00
2023-05-06T11:47:00.163Z,406.00
2023-05-06T11:48:00.270Z,410.00
2023-05-06T11:49:00.348Z,408.00
2023-05-06T11:50:00.417Z,408.00
2023-05-06T11:51:00.485Z,412.00
2023-05-06T11:52:00.608Z,415.00
2023-05-06T11:53:00.636Z,416.00
2023-05-06T11:54:00.707Z,415.00
2023-05-06T11:55:00.770Z,417.00
2023-05-06T11:56:00.855Z,415.00
2023-05-06T11:57:00.937Z,414.00
2023-05-06T11:58:01.000Z,413.00
2023-05-06T11:59:01.096Z,414.00
2023-05-06T12:00:01.179Z,413.00
2023-05-06T12:01:01.252Z,413.00
2023-05-06T12:02:01.390Z,412.00
2023-05-06T12:03:01.515Z,410.00
2023-05-06T12:04:01.575Z,409.00
2023-05-06T12:05:01.660Z,407.00
2023-05-06T12:06:01.578Z,408.00
2023-05-06T12:07:01.601Z,407.00
2023-05-06T12:08:01.627Z,408.00
2023-05-06T12:09:01.642Z,408.00
2023-05-06T12:10:01.655Z,409.00
2023-05-06T12:11:01.674Z,409.00
2023-05-06T12:12:01.677Z,411.00
2023-05-06T12:13:01.718Z,409.00
2023-05-06T12:14:01.694Z,410.00
2023-05-06T12:15:01.706Z,412.00
2023-05-06T12:16:01.777Z,413.00
2023-05-06T12:17:01.845Z,413.00
2023-05-06T12:18:01.979Z,416.00
2023-05-06T12:19:01.961Z,416.00
2023-05-06T12:20:02.007Z,416.00
2023-05-06T12:21:02.091Z,414.00
2023-05-06T12:22:02.165Z,417.00
2023-05-06T12:23:02.236Z,420.00
2023-05-06T12:24:02.299Z,417.00
2023-05-06T12:25:02.357Z,416.00
2023-05-06T12:26:02.438Z,415.00
2023-05-06T12:27:02.492Z,415.00
2023-05-06T12:28:02.548Z,414.00
2023-05-06T12:29:02.633Z,411.00